createdAt,value
2018-06-21T00:00:57.572Z,4.42
2018-06-21T00:03:25.347Z,4.62
2018-06-21T00:05:53.104Z,4.45
2018-06-21T00:08:21.040Z,4.53
2018-06-21T00:10:48.744Z,4.67
2018-06-21T00:13:16.506Z,4.87
2018-06-21T00:15:44.229Z,4.37
2018-06-21T00:18:11.967Z,4.30
2018-06-21T00:20:39.765Z,4.72
2018-06-21T00:23:07.491Z,4.28
2018-06-21T00:25:35.184Z,4.42
2018-06-21T00:28:02.927Z,4.80
2018-06-21T00:30:30.695Z,4.78
2018-06-21T00:32:58.395Z,4.87
2018-06-21T00:35:26.153Z,6.10
2018-06-21T00:37:53.884Z,7.53
2018-06-21T00:40:21.648Z,6.72
2018-06-21T00:42:49.431Z,5.20
2018-06-21T00:45:17.182Z,6.22
2018-06-21T00:47:44.984Z,5.08
2018-06-21T00:53:22.219Z,5.50
2018-06-21T00:56:07.477Z,5.53
2018-06-21T00:58:34.983Z,4.80
2018-06-21T01:01:02.499Z,5.58
2018-06-21T01:03:30.024Z,5.42
2018-06-21T01:05:57.554Z,5.92
2018-06-21T01:08:25.082Z,5.45
2018-06-21T01:10:52.614Z,5.90
2018-06-21T01:13:20.132Z,5.72
2018-06-21T01:15:47.658Z,5.75
2018-06-21T01:18:15.214Z,5.30
2018-06-21T01:20:42.745Z,5.65
2018-06-21T01:23:10.292Z,5.50
2018-06-21T01:25:37.811Z,5.22
2018-06-21T01:28:05.443Z,5.78
2018-06-21T01:30:32.996Z,5.62
2018-06-21T01:33:00.514Z,6.08
2018-06-21T01:35:28.107Z,6.00
2018-06-21T01:37:55.610Z,6.05
2018-06-21T01:40:23.131Z,5.90
2018-06-21T01:42:50.657Z,6.10
2018-06-21T01:45:18.171Z,6.47
2018-06-21T01:47:45.692Z,6.47
2018-06-21T01:50:13.202Z,7.10
2018-06-21T01:52:40.731Z,6.53
2018-06-21T01:55:08.264Z,6.62
2018-06-21T01:57:35.774Z,6.92
2018-06-21T02:00:03.345Z,7.05
2018-06-21T02:02:30.867Z,7.30
2018-06-21T02:04:58.398Z,7.40
2018-06-21T02:07:25.919Z,7.62
2018-06-21T02:09:53.458Z,6.97
2018-06-21T02:12:20.990Z,7.40
2018-06-21T02:14:48.507Z,7.83
2018-06-21T02:17:16.027Z,7.30
2018-06-21T02:19:43.546Z,7.78
2018-06-21T02:22:11.140Z,7.20
2018-06-21T02:24:38.654Z,7.40
2018-06-21T02:27:06.172Z,7.35
2018-06-21T02:29:33.690Z,7.15
2018-06-21T02:32:01.207Z,7.57
2018-06-21T02:34:28.719Z,7.50
2018-06-21T02:36:56.252Z,7.58
2018-06-21T02:39:23.859Z,8.13
2018-06-21T02:41:51.368Z,7.87
2018-06-21T02:44:18.885Z,8.37
2018-06-21T02:46:46.415Z,8.18
2018-06-21T02:49:13.934Z,8.10
2018-06-21T02:51:41.459Z,7.53
2018-06-21T02:54:08.967Z,7.97
2018-06-21T02:56:36.487Z,8.57
2018-06-21T02:59:04.033Z,8.50
2018-06-21T03:01:31.551Z,8.10
2018-06-21T03:03:59.109Z,8.87
2018-06-21T03:06:26.588Z,8.67
2018-06-21T03:08:54.116Z,8.73
2018-06-21T03:11:22.046Z,8.75
2018-06-21T03:13:49.584Z,8.37
2018-06-21T03:16:17.110Z,8.53
2018-06-21T03:18:44.644Z,8.05
2018-06-21T03:21:12.179Z,8.33
2018-06-21T03:23:39.700Z,8.67
2018-06-21T03:26:07.231Z,8.63
2018-06-21T03:28:34.745Z,8.37
2018-06-21T03:31:02.277Z,9.07
2018-06-21T03:33:29.811Z,8.55
2018-06-21T03:35:57.333Z,8.17
2018-06-21T03:38:24.849Z,8.35
2018-06-21T03:40:52.358Z,8.55
2018-06-21T03:43:19.901Z,7.80
2018-06-21T03:45:47.434Z,8.00
2018-06-21T03:48:14.962Z,8.50
2018-06-21T03:50:42.495Z,8.03
2018-06-21T03:53:10.013Z,8.45
2018-06-21T03:55:37.526Z,8.43
2018-06-21T03:58:05.392Z,8.38
2018-06-21T04:00:32.898Z,8.23
2018-06-21T04:03:00.530Z,8.60
2018-06-21T04:05:28.068Z,8.35
2018-06-21T04:07:55.639Z,7.97
2018-06-21T04:10:23.192Z,8.28
2018-06-21T04:12:50.741Z,7.58
2018-06-21T04:15:18.340Z,7.72
2018-06-21T04:17:45.859Z,7.78
2018-06-21T04:20:13.404Z,7.72
2018-06-21T04:22:40.932Z,7.45
2018-06-21T04:25:08.482Z,7.50
2018-06-21T04:27:36.011Z,6.83
2018-06-21T04:30:03.812Z,6.65
2018-06-21T04:32:31.375Z,7.40
2018-06-21T04:34:58.914Z,6.90
2018-06-21T04:37:26.462Z,6.75
2018-06-21T04:39:53.999Z,7.10
2018-06-21T04:42:21.529Z,6.87
2018-06-21T04:44:49.059Z,6.37
2018-06-21T04:47:16.603Z,7.15
2018-06-21T04:49:44.141Z,6.53
2018-06-21T04:52:11.695Z,6.40
2018-06-21T04:54:39.246Z,6.28
2018-06-21T04:57:06.795Z,6.03
2018-06-21T04:59:34.327Z,5.95
2018-06-21T05:02:01.905Z,5.87
2018-06-21T05:04:29.427Z,5.70
2018-06-21T05:06:57.011Z,5.47
2018-06-21T05:09:24.690Z,5.37
2018-06-21T05:11:52.202Z,5.50
2018-06-21T05:14:19.719Z,5.83
2018-06-21T05:16:47.247Z,5.67
2018-06-21T05:19:14.758Z,5.50
2018-06-21T05:21:42.278Z,5.78
2018-06-21T05:24:09.807Z,5.67
2018-06-21T05:26:37.344Z,5.95
2018-06-21T05:29:04.876Z,5.80
2018-06-21T05:31:32.386Z,5.92
2018-06-21T05:33:59.937Z,6.03
2018-06-21T05:36:27.467Z,5.40
2018-06-21T05:38:55.003Z,6.20
2018-06-21T05:41:22.515Z,6.60
2018-06-21T05:43:50.027Z,6.62
2018-06-21T05:46:17.550Z,6.25
2018-06-21T05:48:45.091Z,6.10
2018-06-21T05:51:12.623Z,6.37
2018-06-21T05:53:40.145Z,6.25
2018-06-21T05:56:07.700Z,6.00
2018-06-21T05:58:35.216Z,5.60
2018-06-21T06:01:02.739Z,5.70
2018-06-21T06:03:30.365Z,5.60
2018-06-21T06:05:57.880Z,5.47
2018-06-21T06:08:25.449Z,5.90
2018-06-21T06:10:53.035Z,5.75
2018-06-21T06:13:20.571Z,5.20
2018-06-21T06:15:48.088Z,5.28
2018-06-21T06:18:15.640Z,5.20
2018-06-21T06:23:17.611Z,5.20
2018-06-21T06:25:45.132Z,5.72
2018-06-21T06:28:12.663Z,5.50
2018-06-21T06:30:40.167Z,5.20
2018-06-21T06:33:07.695Z,5.58
2018-06-21T06:35:35.234Z,5.45
2018-06-21T06:38:02.787Z,5.62
2018-06-21T06:40:30.388Z,5.53
2018-06-21T06:42:57.851Z,5.62
2018-06-21T06:45:25.471Z,5.33
2018-06-21T06:47:53.011Z,5.55
2018-06-21T06:50:20.598Z,5.70
2018-06-21T06:52:48.226Z,5.40
2018-06-21T06:55:15.775Z,5.70
2018-06-21T06:57:43.313Z,5.58
2018-06-21T07:00:10.863Z,5.67
2018-06-21T07:02:38.394Z,5.72
2018-06-21T07:05:06.746Z,5.00
2018-06-21T07:07:34.259Z,5.00
2018-06-21T07:10:01.803Z,4.90
2018-06-21T07:12:29.329Z,4.42
2018-06-21T07:14:56.861Z,5.10
2018-06-21T07:17:24.391Z,4.80
2018-06-21T07:19:51.990Z,4.67
2018-06-21T07:22:19.474Z,4.25
2018-06-21T07:24:47.071Z,4.50
2018-06-21T07:27:14.660Z,4.83
2018-06-21T07:29:42.130Z,4.60
2018-06-21T07:32:09.655Z,4.50
2018-06-21T07:34:37.184Z,4.33
2018-06-21T07:37:04.707Z,4.67
2018-06-21T07:39:32.228Z,4.35
2018-06-21T07:41:59.779Z,4.75
2018-06-21T07:44:27.336Z,4.28
2018-06-21T07:46:55.104Z,4.30
2018-06-21T07:49:22.615Z,4.55
2018-06-21T07:51:50.147Z,4.42
2018-06-21T07:54:17.688Z,4.65
2018-06-21T07:56:45.216Z,4.40
2018-06-21T07:59:12.853Z,4.12
2018-06-21T08:01:40.293Z,4.30
2018-06-21T08:04:08.189Z,4.28
2018-06-21T08:06:35.731Z,4.50
2018-06-21T08:09:07.831Z,4.75
2018-06-21T08:11:35.382Z,3.85
2018-06-21T08:14:03.128Z,4.30
2018-06-21T08:16:30.667Z,4.00
2018-06-21T08:18:58.211Z,4.40
2018-06-21T08:21:25.750Z,3.90
2018-06-21T08:23:53.287Z,4.10
2018-06-21T08:26:20.898Z,4.25
2018-06-21T08:28:48.431Z,4.20
2018-06-21T08:31:15.984Z,4.60
2018-06-21T08:33:43.534Z,4.28
2018-06-21T08:36:11.086Z,4.45
2018-06-21T08:38:38.719Z,4.10
2018-06-21T08:41:06.616Z,4.03
2018-06-21T08:43:34.273Z,3.87
2018-06-21T08:46:01.837Z,3.92
2018-06-21T08:48:29.367Z,4.40
2018-06-21T08:50:56.904Z,3.98
2018-06-21T08:53:24.495Z,3.95
2018-06-21T08:55:52.003Z,5.17
2018-06-21T08:58:19.557Z,4.30
2018-06-21T09:00:47.091Z,4.08
2018-06-21T09:03:14.639Z,4.17
2018-06-21T09:05:42.173Z,3.90
2018-06-21T09:08:09.728Z,3.92
2018-06-21T09:10:37.243Z,3.60
2018-06-21T09:13:04.846Z,3.60
2018-06-21T09:15:39.077Z,3.87
2018-06-21T09:18:06.623Z,3.42
2018-06-21T09:20:34.323Z,3.67
2018-06-21T09:23:01.857Z,3.47
2018-06-21T09:25:29.368Z,5.65
2018-06-21T09:27:56.890Z,3.98
2018-06-21T09:30:24.405Z,3.52
2018-06-21T09:32:51.942Z,3.58
2018-06-21T09:35:19.467Z,4.00
2018-06-21T09:37:52.779Z,3.77
2018-06-21T09:40:26.142Z,3.75
2018-06-21T09:43:03.904Z,3.58
2018-06-21T09:45:38.361Z,3.40
2018-06-21T09:48:11.725Z,3.72
2018-06-21T09:50:39.242Z,3.58
2018-06-21T09:53:06.763Z,3.45
2018-06-21T09:55:34.289Z,3.80
2018-06-21T09:58:01.849Z,3.77
2018-06-21T10:00:35.251Z,3.83
2018-06-21T10:03:02.783Z,3.85
2018-06-21T10:05:30.319Z,3.83
2018-06-21T10:07:57.830Z,3.80
2018-06-21T10:10:25.373Z,3.37
2018-06-21T10:12:52.913Z,3.40
2018-06-21T10:15:20.435Z,4.30
2018-06-21T10:17:47.977Z,3.80
2018-06-21T10:20:15.495Z,4.28
2018-06-21T10:22:43.027Z,4.05
2018-06-21T10:25:10.583Z,3.30
2018-06-21T10:27:38.095Z,3.35
2018-06-21T10:30:05.644Z,3.58
2018-06-21T10:32:33.195Z,3.62
2018-06-21T10:35:00.749Z,4.33
2018-06-21T10:37:28.267Z,4.00
2018-06-21T10:39:55.786Z,5.62
2018-06-21T10:42:23.302Z,3.70
2018-06-21T10:44:50.830Z,3.52
2018-06-21T10:47:18.350Z,3.25
2018-06-21T10:49:45.885Z,3.30
2018-06-21T10:52:13.394Z,3.35
2018-06-21T10:54:40.953Z,2.95
2018-06-21T10:57:08.530Z,3.37
2018-06-21T10:59:36.019Z,3.20
2018-06-21T11:02:03.543Z,3.40
2018-06-21T11:04:31.096Z,3.17
2018-06-21T11:06:58.614Z,3.30
2018-06-21T11:09:26.147Z,3.45
2018-06-21T11:11:53.667Z,3.33
2018-06-21T11:14:21.186Z,3.25
2018-06-21T11:16:48.707Z,2.90
2018-06-21T11:19:28.620Z,3.40
2018-06-21T11:21:56.148Z,3.55
2018-06-21T11:24:23.679Z,3.90
2018-06-21T11:26:51.212Z,3.20
2018-06-21T11:29:18.726Z,3.62
2018-06-21T11:31:46.247Z,3.37
2018-06-21T11:34:19.431Z,3.40
2018-06-21T11:36:47.467Z,4.12
2018-06-21T11:39:15.012Z,3.77
2018-06-21T11:41:42.535Z,4.42
2018-06-21T11:44:33.375Z,5.58
2018-06-21T11:47:17.389Z,4.83
2018-06-21T11:49:44.910Z,5.42
2018-06-21T11:52:15.769Z,4.80
2018-06-21T11:54:43.327Z,4.78
2018-06-21T11:57:10.857Z,5.05
2018-06-21T11:59:38.376Z,8.85
2018-06-21T12:02:05.945Z,4.62
2018-06-21T12:04:33.467Z,7.05
2018-06-21T12:07:01.091Z,4.70
2018-06-21T12:09:28.608Z,4.30
2018-06-21T12:11:56.129Z,4.67
2018-06-21T12:14:23.656Z,4.20
2018-06-21T12:16:51.170Z,4.70
2018-06-21T12:19:23.838Z,4.03
2018-06-21T12:21:51.371Z,4.40
2018-06-21T12:24:18.897Z,4.28
2018-06-21T12:27:00.841Z,5.55
2018-06-21T12:29:28.586Z,6.10
2018-06-21T12:32:10.482Z,5.37
2018-06-21T12:34:38.013Z,4.47
2018-06-21T12:37:05.663Z,6.28
2018-06-21T12:39:33.184Z,3.45
2018-06-21T12:42:00.783Z,3.42
2018-06-21T12:44:28.283Z,3.02
2018-06-21T12:46:55.799Z,3.25
2018-06-21T12:49:29.894Z,2.80
2018-06-21T12:51:57.424Z,2.55
2018-06-21T12:54:25.006Z,2.50
2018-06-21T12:56:52.525Z,2.30
2018-06-21T12:59:20.047Z,2.10
2018-06-21T13:01:47.973Z,2.55
2018-06-21T13:04:15.503Z,2.30
2018-06-21T13:06:43.039Z,2.40
2018-06-21T13:09:28.159Z,2.17
2018-06-21T13:12:40.432Z,2.70
2018-06-21T13:15:07.993Z,1.92
2018-06-21T13:17:35.575Z,1.80
2018-06-21T13:20:04.480Z,2.47
2018-06-21T13:22:32.014Z,1.90
2018-06-21T13:24:59.576Z,2.08
2018-06-21T13:27:27.145Z,1.30
2018-06-21T13:29:54.792Z,1.30
2018-06-21T13:32:22.339Z,1.75
2018-06-21T13:34:49.963Z,1.45
2018-06-21T13:37:17.567Z,1.50
2018-06-21T13:39:45.107Z,1.35
2018-06-21T13:42:22.723Z,1.90
2018-06-21T13:44:50.280Z,1.90
2018-06-21T13:47:17.807Z,1.80
2018-06-21T13:49:45.451Z,2.17
2018-06-21T13:52:12.987Z,1.47
2018-06-21T13:54:40.588Z,1.80
2018-06-21T13:57:08.097Z,1.37
2018-06-21T14:00:03.402Z,1.70
2018-06-21T14:02:30.965Z,1.65
2018-06-21T14:04:58.516Z,1.32
2018-06-21T14:07:26.144Z,1.60
2018-06-21T14:09:53.607Z,1.50
2018-06-21T14:12:21.139Z,1.20
2018-06-21T14:14:48.741Z,1.47
2018-06-21T14:17:16.201Z,1.25
2018-06-21T14:19:43.816Z,1.95
2018-06-21T14:22:11.335Z,1.55
2018-06-21T14:24:38.868Z,1.37
2018-06-21T14:27:06.419Z,1.50
2018-06-21T14:29:33.943Z,1.50
2018-06-21T14:32:01.488Z,1.82
2018-06-21T14:34:29.011Z,1.50
2018-06-21T14:36:56.530Z,1.62
2018-06-21T14:39:24.058Z,1.40
2018-06-21T14:41:51.571Z,1.72
2018-06-21T14:44:19.111Z,1.75
2018-06-21T14:46:46.637Z,2.33
2018-06-21T14:49:14.157Z,2.33
2018-06-21T14:54:45.443Z,3.00
2018-06-21T14:57:12.953Z,3.47
2018-06-21T14:59:40.501Z,3.80
2018-06-21T15:02:08.025Z,3.97
2018-06-21T15:04:35.554Z,5.03
2018-06-21T15:07:03.107Z,4.57
2018-06-21T15:09:30.647Z,5.00
2018-06-21T15:11:58.183Z,5.10
2018-06-21T15:14:25.758Z,5.77
2018-06-21T15:16:53.336Z,6.90
2018-06-21T15:19:20.868Z,6.43
2018-06-21T15:21:48.432Z,5.60
2018-06-21T15:24:15.967Z,7.37
2018-06-21T15:26:43.527Z,6.20
2018-06-21T15:29:11.063Z,6.87
2018-06-21T15:31:38.609Z,6.00
2018-06-21T15:34:06.429Z,4.67
2018-06-21T15:36:33.965Z,5.30
2018-06-21T15:39:17.783Z,6.75
2018-06-21T15:41:45.341Z,4.05
2018-06-21T15:44:12.866Z,4.80
2018-06-21T15:46:40.644Z,5.75
2018-06-21T15:49:08.172Z,4.25
2018-06-21T15:51:35.774Z,3.58
2018-06-21T15:54:03.291Z,4.75
2018-06-21T15:56:30.827Z,3.45
2018-06-21T15:58:58.363Z,4.03
2018-06-21T16:01:25.888Z,4.83
2018-06-21T16:03:53.432Z,4.15
2018-06-21T16:06:20.985Z,3.67
2018-06-21T16:08:48.616Z,4.00
2018-06-21T16:11:16.119Z,3.47
2018-06-21T16:13:43.634Z,3.33
2018-06-21T16:16:11.153Z,3.80
2018-06-21T16:18:38.671Z,3.50
2018-06-21T16:21:06.199Z,3.58
2018-06-21T16:23:33.740Z,3.30
2018-06-21T16:26:01.331Z,3.08
2018-06-21T16:28:28.864Z,3.47
2018-06-21T16:30:56.397Z,3.35
2018-06-21T16:33:23.918Z,3.35
2018-06-21T16:35:51.450Z,3.70
2018-06-21T16:38:19.030Z,3.33
2018-06-21T16:40:46.605Z,3.10
2018-06-21T16:43:14.100Z,2.90
2018-06-21T16:45:41.630Z,3.10
2018-06-21T16:48:09.164Z,2.90
2018-06-21T16:50:36.668Z,2.80
2018-06-21T16:53:04.267Z,2.42
2018-06-21T16:55:31.791Z,2.10
2018-06-21T16:57:59.318Z,2.00
2018-06-21T17:00:26.819Z,2.20
2018-06-21T17:02:54.357Z,1.80
2018-06-21T17:05:21.881Z,1.80
2018-06-21T17:07:49.395Z,1.72
2018-06-21T17:10:17.006Z,1.80
2018-06-21T17:12:44.514Z,1.80
2018-06-21T17:15:12.062Z,1.40
2018-06-21T17:17:39.599Z,1.72
2018-06-21T17:20:07.139Z,1.90
2018-06-21T17:22:34.891Z,1.77
2018-06-21T17:25:02.539Z,1.60
2018-06-21T17:27:30.063Z,1.65
2018-06-21T17:29:57.599Z,1.70
2018-06-21T17:32:25.119Z,1.40
2018-06-21T17:34:52.676Z,1.60
2018-06-21T17:37:20.196Z,1.82
2018-06-21T17:39:47.740Z,1.67
2018-06-21T17:42:15.302Z,1.57
2018-06-21T17:44:42.842Z,1.75
2018-06-21T17:47:10.386Z,1.60
2018-06-21T17:49:37.994Z,1.50
2018-06-21T17:52:05.580Z,1.70
2018-06-21T17:54:33.137Z,1.17
2018-06-21T17:57:00.687Z,1.20
2018-06-21T17:59:28.235Z,1.00
2018-06-21T18:01:55.782Z,1.10
2018-06-21T18:04:23.329Z,1.17
2018-06-21T18:06:50.891Z,1.05
2018-06-21T18:09:18.470Z,1.32
2018-06-21T18:11:46.011Z,1.00
2018-06-21T18:14:13.583Z,0.75
2018-06-21T18:16:41.123Z,1.22
2018-06-21T18:19:08.676Z,0.90
2018-06-21T18:21:36.237Z,0.93
2018-06-21T18:24:03.923Z,1.20
2018-06-21T18:26:31.475Z,0.90
2018-06-21T18:29:16.811Z,0.93
2018-06-21T18:31:44.395Z,1.00
2018-06-21T18:34:11.954Z,1.20
2018-06-21T18:36:39.510Z,1.00
2018-06-21T18:39:08.691Z,0.70
2018-06-21T18:41:36.230Z,1.47
2018-06-21T18:44:03.999Z,1.03
2018-06-21T18:46:31.567Z,0.93
2018-06-21T18:48:59.122Z,0.80
2018-06-21T18:51:26.643Z,0.70
2018-06-21T18:53:54.162Z,0.70
2018-06-21T18:56:21.747Z,0.80
2018-06-21T18:58:49.333Z,0.90
2018-06-21T19:01:16.849Z,0.80
2018-06-21T19:03:44.399Z,0.60
2018-06-21T19:06:17.623Z,0.70
2018-06-21T19:08:50.978Z,1.00
2018-06-21T19:11:24.335Z,0.93
2018-06-21T19:13:51.854Z,0.70
2018-06-21T19:16:19.383Z,1.00
2018-06-21T19:18:46.903Z,0.80
2018-06-21T19:21:14.433Z,0.70
2018-06-21T19:23:41.935Z,0.70
2018-06-21T19:28:43.856Z,0.80
2018-06-21T19:31:11.431Z,0.53
2018-06-21T19:33:38.955Z,0.80
2018-06-21T19:36:06.493Z,0.70
2018-06-21T19:38:34.015Z,0.80
2018-06-21T19:41:01.549Z,0.80
2018-06-21T19:43:29.074Z,0.83
2018-06-21T19:45:56.620Z,0.93
2018-06-21T19:48:24.139Z,0.80
2018-06-21T19:50:51.664Z,0.60
2018-06-21T19:53:19.170Z,0.50
2018-06-21T19:55:46.723Z,0.87
2018-06-21T19:58:14.249Z,0.80
2018-06-21T20:00:41.769Z,1.03
2018-06-21T20:03:09.351Z,0.70
2018-06-21T20:05:36.827Z,0.80
2018-06-21T20:08:10.284Z,1.00
2018-06-21T20:10:37.802Z,0.80
2018-06-21T20:13:05.335Z,0.53
2018-06-21T20:15:52.076Z,0.97
2018-06-21T20:18:20.353Z,0.90
2018-06-21T20:20:47.955Z,0.80
2018-06-21T20:23:15.778Z,1.00
2018-06-21T20:25:43.313Z,1.20
2018-06-21T20:28:11.102Z,0.90
2018-06-21T20:30:38.643Z,0.83
2018-06-21T20:33:06.323Z,0.93
2018-06-21T20:35:33.875Z,0.90
2018-06-21T20:38:01.427Z,0.63
2018-06-21T20:40:28.969Z,0.80
2018-06-21T20:42:56.478Z,1.03
2018-06-21T20:45:23.992Z,0.77
2018-06-21T20:47:51.525Z,1.00
2018-06-21T20:50:19.082Z,0.80
2018-06-21T20:52:46.619Z,0.70
2018-06-21T20:55:14.128Z,0.93
2018-06-21T20:57:41.668Z,0.97
2018-06-21T21:00:09.199Z,1.00
2018-06-21T21:02:36.733Z,0.83
2018-06-21T21:05:09.402Z,1.00
2018-06-21T21:07:36.970Z,0.77
2018-06-21T21:10:06.586Z,1.13
2018-06-21T21:12:34.203Z,1.03
2018-06-21T21:15:02.108Z,0.97
2018-06-21T21:17:29.639Z,0.80
2018-06-21T21:19:57.159Z,0.80
2018-06-21T21:22:24.683Z,1.17
2018-06-21T21:24:52.188Z,1.00
2018-06-21T21:27:19.907Z,0.73
2018-06-21T21:29:47.448Z,0.90
2018-06-21T21:32:14.983Z,0.77
2018-06-21T21:34:42.503Z,0.77
2018-06-21T21:37:10.059Z,1.10
2018-06-21T21:39:37.665Z,1.00
2018-06-21T21:42:05.227Z,0.80
2018-06-21T21:44:32.947Z,0.93
2018-06-21T21:47:00.528Z,0.83
2018-06-21T21:49:28.063Z,0.90
2018-06-21T21:51:55.702Z,1.00
2018-06-21T21:54:23.233Z,1.00
2018-06-21T21:56:50.935Z,0.80
2018-06-21T21:59:18.579Z,0.80
2018-06-21T22:01:46.096Z,1.03
2018-06-21T22:04:13.615Z,0.80
2018-06-21T22:06:41.126Z,0.73
2018-06-21T22:09:09.057Z,1.03
2018-06-21T22:11:37.110Z,0.80
2018-06-21T22:14:05.099Z,1.20
2018-06-21T22:16:34.383Z,1.10
2018-06-21T22:19:02.050Z,0.70
2018-06-21T22:21:29.592Z,0.80
2018-06-21T22:23:57.171Z,0.70
2018-06-21T22:26:24.939Z,0.80
2018-06-21T22:28:52.443Z,1.07
2018-06-21T22:31:19.967Z,0.87
2018-06-21T22:33:47.489Z,0.60
2018-06-21T22:36:15.034Z,0.90
2018-06-21T22:38:42.557Z,0.70
2018-06-21T22:41:10.147Z,0.77
2018-06-21T22:43:37.964Z,0.77
2018-06-21T22:46:06.029Z,0.70
2018-06-21T22:48:33.542Z,0.90
2018-06-21T22:51:01.077Z,0.70
2018-06-21T22:53:28.590Z,1.50
2018-06-21T22:55:56.103Z,1.43
2018-06-21T22:58:23.626Z,1.10
2018-06-21T23:00:51.152Z,1.20
2018-06-21T23:03:18.681Z,1.20
2018-06-21T23:05:46.249Z,1.07
2018-06-21T23:08:13.958Z,1.20
2018-06-21T23:10:41.511Z,0.90
2018-06-21T23:13:09.051Z,1.00
2018-06-21T23:15:36.611Z,0.90
2018-06-21T23:18:04.159Z,1.10
2018-06-21T23:20:31.691Z,1.07
2018-06-21T23:22:59.220Z,0.70
2018-06-21T23:25:26.755Z,0.70
2018-06-21T23:27:54.313Z,0.80
2018-06-21T23:30:21.869Z,1.00
2018-06-21T23:32:49.387Z,0.70
2018-06-21T23:35:16.947Z,1.00
2018-06-21T23:37:44.480Z,0.67
2018-06-21T23:40:12.795Z,0.90
2018-06-21T23:42:40.360Z,0.90
2018-06-21T23:45:07.886Z,1.00
2018-06-21T23:47:35.445Z,0.97
2018-06-21T23:50:02.997Z,0.90
2018-06-21T23:52:30.527Z,1.10
2018-06-21T23:54:58.067Z,0.93
2018-06-21T23:57:25.632Z,1.00
2018-06-21T23:59:53.154Z,0.97
